Time;durP1;ratioP1;P1;durP2;ratioP2;P2;SDS_P1;SDS_P2;PMS_P1;PMS_P2;Temp;Humidity;BMP_temperature;BMP_pressure;BME280_temperature;BME280_humidity;BME280_pressure;Samples;Min_cycle;Max_cycle;Signal;HPM_P1;HPM_P2
2022/09/06 00:02:32;;;;;;;7.33;5.57;;;;;;;17.55;99.29;101388.06;5063375;28;20544;-84
2022/09/06 00:04:58;;;;;;;8.83;6.13;;;;;;;17.58;99.31;101384.00;5062849;28;20357;-86
2022/09/06 00:07:23;;;;;;;8.17;6.83;;;;;;;17.43;100.00;101372.78;5063279;28;20070;-86
2022/09/06 00:09:49;;;;;;;10.77;6.77;;;;;;;17.41;100.00;101389.44;5062909;28;20084;-85
2022/09/06 00:12:14;;;;;;;9.43;7.07;;;;;;;17.41;100.00;101386.72;5062199;28;20039;-85
2022/09/06 00:14:39;;;;;;;8.90;6.70;;;;;;;17.42;100.00;101406.72;5062587;28;20047;-85
2022/09/06 00:17:05;;;;;;;7.53;6.33;;;;;;;17.44;100.00;101429.22;5062684;28;20040;-85
2022/09/06 00:19:30;;;;;;;9.67;6.77;;;;;;;17.46;100.00;101448.97;5062757;28;20035;-87
2022/09/06 00:21:55;;;;;;;10.07;6.83;;;;;;;17.45;100.00;101477.44;5063086;28;20042;-86
2022/09/06 00:24:21;;;;;;;11.03;6.97;;;;;;;17.45;100.00;101491.13;5061843;28;20119;-86
2022/09/06 00:26:46;;;;;;;13.77;8.03;;;;;;;17.53;100.00;101535.44;5062854;28;20134;-87
2022/09/06 00:29:11;;;;;;;11.13;7.20;;;;;;;17.65;100.00;101554.59;5062507;28;20651;-87
2022/09/06 00:31:37;;;;;;;9.20;6.33;;;;;;;17.57;100.00;101574.16;5044786;28;20040;-87
2022/09/06 00:34:02;;;;;;;11.67;7.60;;;;;;;17.54;100.00;101574.63;5044126;28;20133;-85
2022/09/06 00:36:27;;;;;;;7.63;6.63;;;;;;;17.62;99.99;101578.91;5063010;28;20124;-89
2022/09/06 00:38:53;;;;;;;8.87;6.90;;;;;;;17.49;100.00;101585.50;5061528;28;20040;-89
2022/09/06 00:41:18;;;;;;;10.00;7.10;;;;;;;17.45;100.00;101581.53;5061885;28;20048;-88
2022/09/06 00:43:44;;;;;;;7.77;6.53;;;;;;;17.47;100.00;101573.91;5062404;28;20036;-87
2022/09/06 00:46:16;;;;;;;9.43;7.60;;;;;;;17.51;100.00;101564.97;5061760;28;20046;-88
2022/09/06 00:48:44;;;;;;;11.30;7.63;;;;;;;17.54;100.00;101569.13;5062271;28;20070;-87
2022/09/06 00:51:12;;;;;;;7.00;6.30;;;;;;;17.55;100.00;101562.59;5062312;28;20032;-89
2022/09/06 00:53:38;;;;;;;8.07;6.40;;;;;;;17.59;100.00;101554.72;5061803;28;20160;-87
2022/09/06 00:56:04;;;;;;;11.40;7.93;;;;;;;17.50;100.00;101557.84;5062303;28;20136;-91
2022/09/06 00:58:29;;;;;;;10.40;7.80;;;;;;;17.46;100.00;101561.28;5044111;28;20039;-85
2022/09/06 01:00:55;;;;;;;9.40;7.90;;;;;;;17.47;100.00;101557.47;5042959;28;20468;-88
2022/09/06 01:03:24;;;;;;;9.43;7.70;;;;;;;17.51;100.00;101542.22;5062216;28;20085;-88
2022/09/06 01:06:27;;;;;;;12.27;7.53;;;;;;;17.56;100.00;101545.09;5061948;28;20036;-88
2022/09/06 01:09:05;;;;;;;9.30;7.57;;;;;;;17.57;100.00;101544.03;5061654;28;20056;-88
2022/09/06 01:11:36;;;;;;;11.77;7.73;;;;;;;17.59;100.00;101538.28;5061091;28;20040;-88
2022/09/06 01:14:34;;;;;;;9.40;7.70;;;;;;;17.62;100.00;101513.13;5061670;28;20042;-89
2022/09/06 01:17:27;;;;;;;10.80;8.13;;;;;;;17.58;100.00;101518.25;5047081;28;20056;-88
2022/09/06 01:20:17;;;;;;;10.03;7.70;;;;;;;17.63;100.00;101523.84;5060340;28;21446;-88
2022/09/06 01:22:51;;;;;;;14.40;8.60;;;;;;;17.67;100.00;101522.28;5061709;28;20036;-88
2022/09/06 01:25:41;;;;;;;11.77;8.38;;;;;;;17.66;100.00;101498.69;5060983;28;20040;-88
2022/09/06 01:28:21;;;;;;;10.43;8.00;;;;;;;17.62;100.00;101504.91;5060329;28;20088;-88
2022/09/06 01:30:56;;;;;;;10.43;7.97;;;;;;;17.57;100.00;101491.97;5061559;28;20101;-87
2022/09/06 01:33:26;;;;;;;11.07;8.17;;;;;;;17.49;100.00;101489.59;5061914;28;20051;-88
2022/09/06 01:35:59;;;;;;;12.27;8.97;;;;;;;17.43;100.00;101477.69;5061377;28;20020;-87
2022/09/06 01:38:25;;;;;;;10.67;8.40;;;;;;;17.31;100.00;101468.66;5062449;28;20024;-87
2022/09/06 01:40:50;;;;;;;11.87;9.10;;;;;;;17.36;100.00;101444.94;5042990;28;20110;-88
2022/09/06 01:43:24;;;;;;;12.17;8.57;;;;;;;17.35;100.00;101415.91;5061839;28;20496;-89
2022/09/06 01:46:12;;;;;;;9.00;7.63;;;;;;;17.36;100.00;101392.09;5061541;28;20086;-87
2022/09/06 01:49:08;;;;;;;9.77;8.07;;;;;;;17.36;100.00;101361.97;5061319;28;20041;-88
2022/09/06 01:52:06;;;;;;;9.80;7.90;;;;;;;17.37;100.00;101345.28;5061568;28;20370;-86
2022/09/06 01:54:50;;;;;;;9.23;8.13;;;;;;;17.34;100.00;101334.81;5024557;28;20049;-87
2022/09/06 01:57:48;;;;;;;10.23;8.30;;;;;;;17.26;100.00;101323.41;5061733;28;20040;-87
2022/09/06 02:00:16;;;;;;;11.27;7.93;;;;;;;17.23;100.00;101327.50;4989643;28;20037;-87
2022/09/06 02:03:16;;;;;;;9.57;8.10;;;;;;;17.28;100.00;101316.63;5062049;28;20845;-86
2022/09/06 02:05:47;;;;;;;9.30;7.83;;;;;;;17.29;100.00;101323.75;5060693;28;20055;-88
2022/09/06 02:08:40;;;;;;;10.73;7.80;;;;;;;17.33;100.00;101322.19;5061421;28;20149;-88
2022/09/06 02:11:08;;;;;;;8.80;7.20;;;;;;;17.33;99.75;101319.47;5060632;28;20039;-90
2022/09/06 02:14:00;;;;;;;9.40;7.17;;;;;;;17.39;99.25;101309.41;5028683;28;20032;-86
2022/09/06 02:16:27;;;;;;;8.40;7.40;;;;;;;17.38;98.58;101305.84;5061167;28;20526;-86
2022/09/06 02:19:02;;;;;;;9.53;7.60;;;;;;;17.35;98.51;101317.31;5026577;28;20040;-87
2022/09/06 02:21:35;;;;;;;12.00;9.00;;;;;;;17.25;100.00;101325.31;5059929;28;20139;-85
2022/09/06 02:24:07;;;;;;;10.00;8.60;;;;;;;17.23;100.00;101322.03;5060286;28;20071;-86
2022/09/06 02:26:36;;;;;;;10.70;8.93;;;;;;;17.28;100.00;101313.88;5061094;28;20048;-87
2022/09/06 02:29:03;;;;;;;12.20;9.10;;;;;;;17.18;100.00;101303.56;5060394;28;20032;-86
2022/09/06 02:31:38;;;;;;;11.10;8.53;;;;;;;17.19;100.00;101315.38;5060198;28;20127;-86
2022/09/06 02:34:04;;;;;;;12.25;8.88;;;;;;;17.18;100.00;101324.66;5060424;28;20032;-87
2022/09/06 02:36:31;;;;;;;9.97;8.53;;;;;;;17.20;100.00;101347.13;5061147;28;20045;-86
2022/09/06 02:38:59;;;;;;;10.50;8.67;;;;;;;17.15;100.00;101369.78;5061998;28;20112;-87
2022/09/06 02:41:32;;;;;;;12.07;8.63;;;;;;;17.19;100.00;101367.41;5064723;28;20059;-86
2022/09/06 02:43:58;;;;;;;10.45;8.80;;;;;;;17.23;100.00;101367.72;5064792;28;20048;-88
2022/09/06 02:46:23;;;;;;;10.93;8.87;;;;;;;17.19;100.00;101367.41;5065145;28;20033;-87
2022/09/06 02:48:49;;;;;;;11.07;9.13;;;;;;;17.27;100.00;101364.28;5064696;28;21094;-87
2022/09/06 02:51:15;;;;;;;13.57;9.30;;;;;;;17.27;100.00;101356.06;5065741;28;20051;-87
2022/09/06 02:53:40;;;;;;;12.33;9.60;;;;;;;17.25;100.00;101340.94;5046787;28;20488;-88
2022/09/06 02:56:06;;;;;;;11.83;9.60;;;;;;;17.29;100.00;101350.31;5064650;28;20036;-88
2022/09/06 02:58:31;;;;;;;11.80;8.67;;;;;;;17.29;100.00;101348.41;5062971;28;20033;-88
2022/09/06 03:00:56;;;;;;;11.97;9.33;;;;;;;17.30;100.00;101339.13;5064319;28;20036;-86
2022/09/06 03:03:23;;;;;;;12.30;9.83;;;;;;;17.27;100.00;101339.63;5064641;28;20435;-87
2022/09/06 03:05:50;;;;;;;11.80;9.30;;;;;;;17.18;100.00;101335.59;5064010;28;20126;-87
2022/09/06 03:08:17;;;;;;;13.83;9.77;;;;;;;17.03;100.00;101342.44;5032668;28;20041;-86
2022/09/06 03:10:51;;;;;;;13.63;9.67;;;;;;;17.03;100.00;101345.16;5063214;28;20036;-87
2022/09/06 03:13:17;;;;;;;13.25;9.77;;;;;;;16.98;100.00;101342.31;5046216;28;20486;-87
2022/09/06 03:15:42;;;;;;;12.87;9.93;;;;;;;16.96;100.00;101341.75;5063982;28;20032;-87
2022/09/06 03:18:38;;;;;;;13.50;9.63;;;;;;;17.01;100.00;101341.00;5064145;28;20132;-87
2022/09/06 03:21:04;;;;;;;12.77;9.60;;;;;;;16.96;100.00;101343.63;5062707;28;20047;-88
2022/09/06 03:24:03;;;;;;;13.17;9.77;;;;;;;16.98;100.00;101342.31;5064594;28;20041;-88
2022/09/06 03:26:29;;;;;;;10.80;9.70;;;;;;;16.97;100.00;101340.69;5063155;28;20049;-88
2022/09/06 03:28:55;;;;;;;13.00;9.40;;;;;;;16.94;100.00;101338.41;5045064;28;20036;-89
2022/09/06 03:31:20;;;;;;;13.80;8.77;;;;;;;16.96;100.00;101333.53;5045499;28;20833;-89
2022/09/06 03:33:46;;;;;;;12.33;9.60;;;;;;;17.02;100.00;101337.19;5064024;28;20472;-89
2022/09/06 03:36:11;;;;;;;11.87;9.60;;;;;;;17.02;100.00;101332.53;5063119;28;20048;-89
2022/09/06 03:38:36;;;;;;;14.03;9.50;;;;;;;16.97;100.00;101329.72;5064084;28;20040;-89
2022/09/06 03:41:02;;;;;;;10.90;9.80;;;;;;;17.02;100.00;101337.19;5062624;28;20085;-89
2022/09/06 03:43:28;;;;;;;10.83;9.47;;;;;;;16.95;100.00;101342.81;5064549;28;20039;-89
2022/09/06 03:45:58;;;;;;;12.20;9.70;;;;;;;16.81;100.00;101341.38;5063387;28;20074;-88
2022/09/06 03:48:26;;;;;;;11.87;10.60;;;;;;;16.81;100.00;101352.31;5063187;28;21412;-89
2022/09/06 03:50:54;;;;;;;12.20;10.10;;;;;;;16.78;100.00;101345.47;5044160;28;20032;-88
2022/09/06 03:53:20;;;;;;;13.60;10.60;;;;;;;16.80;100.00;101339.75;5064095;28;20032;-88
2022/09/06 03:55:47;;;;;;;11.17;9.80;;;;;;;16.79;100.00;101346.28;5062951;28;20482;-87
2022/09/06 03:58:31;;;;;;;12.47;10.20;;;;;;;16.79;100.00;101349.00;5045897;28;20587;-88
2022/09/06 04:01:05;;;;;;;12.73;9.57;;;;;;;16.71;100.00;101339.25;5063080;28;20472;-89
2022/09/06 04:03:31;;;;;;;11.15;9.38;;;;;;;16.68;100.00;101347.97;5044366;28;20044;-89
2022/09/06 04:05:56;;;;;;;12.03;9.20;;;;;;;16.67;100.00;101355.34;5044236;28;20504;-89
2022/09/06 04:08:22;;;;;;;12.63;9.37;;;;;;;16.64;100.00;101346.78;5062958;28;20094;-87
2022/09/06 04:10:55;;;;;;;11.97;9.20;;;;;;;16.60;100.00;101357.34;5062368;28;20075;-87
2022/09/06 04:13:22;;;;;;;10.70;9.43;;;;;;;16.48;100.00;101343.72;5030792;28;20369;-88
2022/09/06 04:15:48;;;;;;;11.37;9.07;;;;;;;16.46;100.00;101339.56;5062555;28;20392;-87
2022/09/06 04:18:14;;;;;;;11.30;8.50;;;;;;;16.37;100.00;101345.38;5061670;28;20137;-88
2022/09/06 04:20:40;;;;;;;11.27;9.10;;;;;;;16.44;100.00;101348.00;5062423;28;20086;-91
2022/09/06 04:23:06;;;;;;;12.73;9.80;;;;;;;16.51;100.00;101348.69;5062096;28;20101;-89
2022/09/06 04:25:31;;;;;;;18.27;10.43;;;;;;;16.50;100.00;101348.94;5044384;28;20044;-90
2022/09/06 04:27:57;;;;;;;12.60;10.00;;;;;;;16.45;100.00;101355.13;5063002;28;20061;-89
2022/09/06 04:30:22;;;;;;;12.23;10.70;;;;;;;16.58;100.00;101358.66;5061441;28;20454;-90
2022/09/06 04:32:47;;;;;;;13.57;11.17;;;;;;;16.61;100.00;101369.16;5062786;28;20036;-91
2022/09/06 04:35:13;;;;;;;14.27;11.43;;;;;;;16.61;100.00;101369.97;5062551;28;20036;-89
2022/09/06 04:37:39;;;;;;;15.30;11.83;;;;;;;16.67;100.00;101370.91;5062319;28;20044;-88
2022/09/06 04:40:05;;;;;;;13.60;11.57;;;;;;;16.66;100.00;101366.53;5062709;28;20048;-89
2022/09/06 04:42:30;;;;;;;14.53;11.23;;;;;;;16.54;100.00;101366.53;5060922;28;20458;-89
2022/09/06 04:44:55;;;;;;;13.80;11.20;;;;;;;16.49;100.00;101358.22;5062156;28;20036;-88
2022/09/06 04:47:21;;;;;;;16.90;12.00;;;;;;;16.56;100.00;101364.38;5044503;28;20032;-87
2022/09/06 04:49:48;;;;;;;17.30;12.13;;;;;;;16.61;100.00;101375.44;5061932;28;20086;-87
2022/09/06 04:52:14;;;;;;;17.20;13.03;;;;;;;16.62;100.00;101371.66;5044633;28;20032;-87
2022/09/06 04:54:39;;;;;;;16.20;13.20;;;;;;;16.62;100.00;101379.00;5043503;28;20040;-87
2022/09/06 04:57:05;;;;;;;19.47;14.97;;;;;;;16.59;100.00;101371.28;5062286;28;20524;-91
2022/09/06 04:59:30;;;;;;;20.33;15.40;;;;;;;16.58;100.00;101375.94;5061321;28;20036;-91
2022/09/06 05:01:56;;;;;;;21.83;15.87;;;;;;;16.49;100.00;101363.69;5026143;28;20190;-88
2022/09/06 05:04:21;;;;;;;22.63;16.60;;;;;;;16.55;100.00;101373.69;5043295;28;20163;-88
2022/09/06 05:06:46;;;;;;;21.70;16.23;;;;;;;16.54;100.00;101367.38;5060503;28;20037;-88
2022/09/06 05:09:12;;;;;;;22.60;15.67;;;;;;;16.55;100.00;101370.94;5062280;28;20430;-86
2022/09/06 05:11:37;;;;;;;21.30;15.43;;;;;;;16.54;100.00;101369.28;5061283;28;20041;-86
2022/09/06 05:14:02;;;;;;;23.87;16.27;;;;;;;16.52;100.00;101385.94;5061949;28;20117;-86
2022/09/06 05:16:28;;;;;;;19.83;14.37;;;;;;;16.52;100.00;101382.34;5043945;28;20048;-90
2022/09/06 05:18:53;;;;;;;18.03;13.90;;;;;;;16.48;100.00;101378.44;5061987;28;20469;-87
2022/09/06 05:21:19;;;;;;;20.70;14.53;;;;;;;16.46;100.00;101381.41;5060666;28;20044;-88
2022/09/06 05:23:44;;;;;;;18.13;13.87;;;;;;;16.49;100.00;101382.84;5026454;28;20048;-91
2022/09/06 05:26:09;;;;;;;17.70;13.87;;;;;;;16.48;100.00;101375.69;5061419;28;20071;-88
2022/09/06 05:28:55;;;;;;;19.13;14.40;;;;;;;16.50;100.00;101376.28;5062629;28;20469;-88
2022/09/06 05:31:26;;;;;;;16.93;13.97;;;;;;;16.46;100.00;101383.31;5061033;28;20035;-88
2022/09/06 05:33:53;;;;;;;18.57;14.23;;;;;;;16.38;100.00;101382.59;5043295;28;20475;-89
2022/09/06 05:36:18;;;;;;;17.23;14.53;;;;;;;16.41;100.00;101383.19;5042506;28;20483;-88
2022/09/06 05:38:44;;;;;;;17.87;14.10;;;;;;;16.44;100.00;101385.44;5042794;28;20067;-88
2022/09/06 05:41:09;;;;;;;17.37;14.63;;;;;;;16.44;100.00;101389.03;5061220;28;20032;-89
2022/09/06 05:43:34;;;;;;;19.17;15.40;;;;;;;16.43;100.00;101384.63;5062470;28;20074;-91
2022/09/06 05:45:59;;;;;;;20.67;16.53;;;;;;;16.46;100.00;101388.78;5043067;28;20085;-88
2022/09/06 05:48:25;;;;;;;19.47;16.57;;;;;;;16.47;100.00;101391.28;5062861;28;20544;-89
2022/09/06 05:51:02;;;;;;;22.07;16.70;;;;;;;16.49;100.00;101391.03;5061919;28;20038;-87
2022/09/06 05:53:36;;;;;;;23.17;16.43;;;;;;;16.53;100.00;101390.31;5044047;28;20077;-88
2022/09/06 05:56:02;;;;;;;18.23;14.65;;;;;;;16.52;100.00;101390.56;5042428;28;20032;-91
2022/09/06 05:58:27;;;;;;;19.50;15.10;;;;;;;16.55;100.00;101398.31;5013188;28;20496;-90
2022/09/06 06:01:03;;;;;;;19.23;14.50;;;;;;;16.62;100.00;101401.75;5043782;28;20036;-89
2022/09/06 06:03:29;;;;;;;19.30;14.10;;;;;;;16.63;100.00;101399.81;5062235;28;20063;-91
2022/09/06 06:05:54;;;;;;;17.93;13.80;;;;;;;16.66;100.00;101396.63;5043605;28;20041;-88
2022/09/06 06:08:19;;;;;;;17.27;13.80;;;;;;;16.68;100.00;101405.41;5062305;28;20486;-89
2022/09/06 06:10:45;;;;;;;19.33;14.00;;;;;;;16.68;100.00;101403.50;5062091;28;20774;-89
2022/09/06 06:13:10;;;;;;;18.23;14.43;;;;;;;16.74;100.00;101400.88;5044632;28;20313;-89
2022/09/06 06:15:35;;;;;;;17.13;13.93;;;;;;;16.76;100.00;101396.03;5065833;28;20127;-89
2022/09/06 06:18:01;;;;;;;16.53;14.50;;;;;;;16.80;100.00;101399.94;5064993;28;20043;-90
2022/09/06 06:20:26;;;;;;;17.67;14.60;;;;;;;16.87;100.00;101397.91;5065941;28;20028;-89
2022/09/06 06:22:51;;;;;;;16.77;14.73;;;;;;;16.94;100.00;101395.88;5063673;28;20036;-93
2022/09/06 06:25:21;;;;;;;18.33;14.23;;;;;;;16.98;100.00;101401.72;5065104;28;20053;-88
2022/09/06 06:27:46;;;;;;;17.23;13.90;;;;;;;17.03;100.00;101397.19;5065805;28;20078;-89
2022/09/06 06:30:12;;;;;;;18.63;14.70;;;;;;;17.10;100.00;101394.31;5048669;28;20036;-88
2022/09/06 06:32:41;;;;;;;17.07;14.30;;;;;;;17.14;99.81;101390.00;5064570;28;21346;-90
2022/09/06 06:35:08;;;;;;;16.37;13.87;;;;;;;17.20;99.44;101393.69;5063908;28;20488;-89
2022/09/06 06:37:33;;;;;;;17.70;13.80;;;;;;;17.28;99.26;101401.50;5047155;28;20040;-90
2022/09/06 06:39:59;;;;;;;18.33;13.73;;;;;;;17.36;98.46;101397.56;5047252;28;20066;-88
2022/09/06 06:42:24;;;;;;;16.70;13.50;;;;;;;17.42;97.35;101393.00;5063067;28;20115;-91
2022/09/06 06:44:52;;;;;;;19.37;13.80;;;;;;;17.57;97.60;101387.00;5047019;28;20058;-90
2022/09/06 06:47:35;;;;;;;16.30;13.90;;;;;;;17.63;97.29;101375.88;5064938;28;20033;-90
2022/09/06 06:50:00;;;;;;;17.90;14.40;;;;;;;17.74;97.12;101382.38;5032583;28;20044;-88
2022/09/06 06:52:26;;;;;;;17.43;13.73;;;;;;;17.86;96.47;101387.81;5064512;28;20511;-89
2022/09/06 06:54:51;;;;;;;15.70;14.00;;;;;;;17.94;94.80;101384.69;5046506;28;20051;-90
2022/09/06 06:57:16;;;;;;;17.77;14.90;;;;;;;18.01;94.60;101376.31;5064973;28;20062;-90
2022/09/06 06:59:42;;;;;;;19.90;15.90;;;;;;;18.16;94.62;101392.16;5065320;28;20055;-91
2022/09/06 07:02:07;;;;;;;18.80;15.73;;;;;;;18.21;93.99;101386.78;5046481;28;20128;-92
2022/09/06 07:04:33;;;;;;;20.40;16.57;;;;;;;18.39;94.74;101396.66;5064507;28;20075;-92
2022/09/06 07:06:58;;;;;;;20.10;15.00;;;;;;;18.48;93.57;101386.91;5062746;28;20408;-91
2022/09/06 07:09:24;;;;;;;18.63;15.40;;;;;;;18.54;91.94;101387.81;5064342;28;20055;-92
2022/09/06 07:11:50;;;;;;;18.60;14.27;;;;;;;18.64;90.81;101385.19;5064474;28;20039;-91
2022/09/06 07:14:17;;;;;;;19.57;14.80;;;;;;;18.72;89.80;101389.44;5064818;28;20041;-89
2022/09/06 07:16:43;;;;;;;18.70;15.23;;;;;;;18.86;89.84;101385.25;5065351;28;20086;-88
2022/09/06 07:19:36;;;;;;;16.87;14.27;;;;;;;19.03;89.94;101376.97;5064508;28;20052;-91
2022/09/06 07:22:01;;;;;;;17.10;14.27;;;;;;;19.06;87.25;101372.88;5045398;28;20134;-92
2022/09/06 07:24:27;;;;;;;16.37;14.27;;;;;;;19.21;87.24;101378.53;5064890;28;20036;-91
2022/09/06 07:26:52;;;;;;;17.67;14.73;;;;;;;19.36;87.83;101377.88;5044853;28;20059;-91
2022/09/06 07:29:17;;;;;;;16.90;14.10;;;;;;;19.47;86.94;101391.75;5064370;28;20043;-88
2022/09/06 07:31:43;;;;;;;17.85;13.30;;;;;;;19.54;85.10;101379.47;5063764;28;20397;-86
2022/09/06 07:34:08;;;;;;;17.60;12.70;;;;;;;19.61;84.15;101384.75;5046061;28;20060;-87
2022/09/06 07:36:34;;;;;;;15.38;12.60;;;;;;;19.64;83.96;101381.50;5031442;28;20079;-91
2022/09/06 07:38:59;;;;;;;15.60;11.82;;;;;;;19.73;84.45;101379.94;5064195;28;20127;-85
2022/09/06 07:41:25;;;;;;;15.73;12.35;;;;;;;19.74;83.49;101375.25;5064264;28;20089;-90
2022/09/06 07:43:56;;;;;;;16.73;12.63;;;;;;;19.98;84.18;101380.47;5064085;28;20420;-90
2022/09/06 07:46:21;;;;;;;18.02;12.35;;;;;;;20.16;83.60;101385.53;5064324;28;20433;-90
2022/09/06 07:48:48;;;;;;;14.68;12.32;;;;;;;20.24;82.26;101384.22;5064599;28;20037;-88
2022/09/06 07:51:19;;;;;;;16.92;11.15;;;;;;;20.36;81.96;101386.81;5062944;28;20056;-86
2022/09/06 07:53:51;;;;;;;15.10;11.35;;;;;;;20.47;81.44;101387.69;5064565;28;20111;-91
2022/09/06 07:56:18;;;;;;;14.65;11.85;;;;;;;20.66;79.86;101385.34;5066108;28;21073;-93
2022/09/06 07:58:44;;;;;;;15.50;11.98;;;;;;;20.76;78.89;101376.31;5049608;28;20476;-91
2022/09/06 08:01:18;;;;;;;14.65;11.13;;;;;;;20.97;78.78;101378.09;5064649;28;20098;-88
2022/09/06 08:03:44;;;;;;;;;;;;;;;21.14;76.91;101377.03;5045846;28;20039;-86
2022/09/06 08:06:10;;;;;;;17.20;11.40;;;;;;;21.23;76.66;101372.66;5064609;28;20006;-92
2022/09/06 08:08:35;;;;;;;13.98;10.68;;;;;;;21.57;77.97;101366.72;5064362;28;20086;-92
2022/09/06 08:11:01;;;;;;;15.85;10.65;;;;;;;21.67;75.21;101366.72;5046688;28;20844;-91
2022/09/06 08:13:26;;;;;;;12.20;9.80;;;;;;;21.75;73.21;101363.41;5063892;28;20081;-88
2022/09/06 08:15:59;;;;;;;12.80;9.00;;;;;;;21.89;72.28;101366.44;5029539;28;20532;-87
2022/09/06 08:18:24;;;;;;;13.63;9.18;;;;;;;22.03;72.00;101368.66;5045711;28;20059;-88
2022/09/06 08:20:50;;;;;;;11.15;8.63;;;;;;;22.30;72.36;101359.25;5064433;28;20036;-91
2022/09/06 08:23:15;;;;;;;12.45;9.15;;;;;;;22.48;70.41;101353.19;5061914;28;20179;-89
2022/09/06 08:25:40;;;;;;;11.43;8.15;;;;;;;22.42;67.50;101360.66;5063298;28;20129;-88
2022/09/06 08:28:06;;;;;;;10.98;7.45;;;;;;;22.59;66.56;101354.78;5065117;28;20075;-87
2022/09/06 08:30:32;;;;;;;11.60;6.90;;;;;;;22.82;67.08;101363.56;5063884;28;20064;-89
2022/09/06 08:32:57;;;;;;;11.40;7.20;;;;;;;22.95;67.67;101356.59;5047192;28;20447;-89
2022/09/06 08:35:22;;;;;;;10.30;6.43;;;;;;;23.15;63.66;101363.19;5064742;28;20035;-90
2022/09/06 08:37:48;;;;;;;11.73;6.53;;;;;;;23.25;63.24;101361.19;5064341;28;20123;-91
2022/09/06 08:40:32;;;;;;;7.68;6.15;;;;;;;23.34;62.54;101355.88;5064940;28;20039;-87
2022/09/06 08:42:57;;;;;;;8.93;5.60;;;;;;;23.35;62.63;101363.06;5066092;28;20035;-90
2022/09/06 08:45:23;;;;;;;9.70;5.40;;;;;;;23.45;63.11;101358.59;5064872;28;20024;-91
2022/09/06 08:47:51;;;;;;;8.73;4.82;;;;;;;23.82;61.70;101358.00;5062179;28;20096;-87
2022/09/06 08:50:17;;;;;;;12.80;5.45;;;;;;;24.20;61.40;101369.34;5063513;28;20072;-89
2022/09/06 08:52:45;;;;;;;10.30;5.60;;;;;;;24.35;60.07;101357.28;5063819;28;20027;-87
2022/09/06 08:55:49;;;;;;;8.20;4.93;;;;;;;24.71;61.25;101356.09;5062860;28;20040;-89
2022/09/06 08:58:46;;;;;;;8.13;4.25;;;;;;;24.78;58.68;101354.63;5058756;28;20046;-89
2022/09/06 09:01:17;;;;;;;5.88;3.90;;;;;;;25.01;57.00;101360.44;5062413;28;20036;-85
2022/09/06 09:03:44;;;;;;;5.88;3.80;;;;;;;24.99;56.46;101350.78;5062257;28;20419;-88
2022/09/06 09:06:10;;;;;;;6.90;4.18;;;;;;;25.14;56.70;101363.59;5030724;28;20055;-93
2022/09/06 09:08:35;;;;;;;4.95;3.22;;;;;;;25.38;55.66;101350.53;5063224;28;20044;-90
2022/09/06 09:11:04;;;;;;;6.00;3.58;;;;;;;25.51;54.51;101364.75;5062892;28;20036;-90
2022/09/06 09:13:39;;;;;;;3.67;3.08;;;;;;;25.61;55.15;101361.84;5063572;28;20032;-87
2022/09/06 09:16:05;;;;;;;5.20;2.92;;;;;;;25.54;54.30;101350.28;5064598;28;20040;-87
2022/09/06 09:18:39;;;;;;;4.57;2.65;;;;;;;25.82;54.68;101351.22;5062619;28;20101;-91
2022/09/06 09:21:05;;;;;;;4.57;2.88;;;;;;;26.00;53.55;101349.50;5043530;28;20115;-91
2022/09/06 09:23:31;;;;;;;6.97;2.70;;;;;;;26.15;52.14;101347.63;5062535;28;20055;-88
2022/09/06 09:26:03;;;;;;;8.13;2.50;;;;;;;26.14;53.06;101357.09;5042992;28;20048;-88
2022/09/06 09:28:28;;;;;;;6.40;2.70;;;;;;;26.34;52.35;101344.78;5062129;28;20044;-88
2022/09/06 09:30:55;;;;;;;4.18;2.60;;;;;;;26.37;52.17;101336.69;5027076;28;20385;-90
2022/09/06 09:33:37;;;;;;;4.93;2.83;;;;;;;26.76;52.15;101346.50;5043998;28;20494;-94
2022/09/06 09:36:12;;;;;;;5.25;3.10;;;;;;;26.67;51.03;101345.53;5061939;28;20467;-88
2022/09/06 09:38:47;;;;;;;4.28;2.72;;;;;;;26.64;52.01;101346.13;5062538;28;20942;-92
2022/09/06 09:41:32;;;;;;;4.95;2.92;;;;;;;26.72;51.42;101344.63;5062791;28;20032;-87
2022/09/06 09:44:09;;;;;;;3.70;2.78;;;;;;;26.53;52.02;101359.41;5062448;28;20036;-89
2022/09/06 09:46:37;;;;;;;6.40;3.30;;;;;;;26.52;50.96;101359.72;5062455;28;20515;-89
2022/09/06 09:49:03;;;;;;;5.85;3.20;;;;;;;26.53;50.98;101353.03;5060542;28;20531;-88
2022/09/06 09:51:30;;;;;;;5.45;3.45;;;;;;;26.43;51.06;101351.28;5062395;28;20040;-89
2022/09/06 09:54:02;;;;;;;7.40;2.97;;;;;;;26.41;51.92;101368.25;5061112;28;20098;-93
2022/09/06 09:56:43;;;;;;;6.15;3.20;;;;;;;26.66;52.12;101349.44;5062520;28;20043;-89
2022/09/06 09:59:20;;;;;;;7.60;3.58;;;;;;;26.66;52.49;101352.22;5061412;28;21381;-92
2022/09/06 10:01:47;;;;;;;7.15;2.90;;;;;;;26.68;51.61;101355.50;5062614;28;20028;-86
2022/09/06 10:04:19;;;;;;;4.95;3.05;;;;;;;27.03;50.62;101346.75;5062074;28;20047;-88
2022/09/06 10:06:45;;;;;;;5.35;2.45;;;;;;;27.17;49.92;101355.06;5061711;28;20037;-90
2022/09/06 10:09:36;;;;;;;4.38;2.85;;;;;;;27.28;50.59;101350.91;5060950;28;20491;-89
2022/09/06 10:12:03;;;;;;;4.68;2.97;;;;;;;27.29;50.08;101342.28;5016501;28;20036;-89
2022/09/06 10:14:31;;;;;;;3.67;2.90;;;;;;;27.38;49.90;101334.03;5061568;28;20222;-90
2022/09/06 10:16:58;;;;;;;5.07;3.03;;;;;;;27.57;49.44;101339.41;5043703;28;20060;-88
2022/09/06 10:19:40;;;;;;;5.50;2.90;;;;;;;27.86;50.02;101351.25;5061807;28;20071;-90
2022/09/06 10:22:38;;;;;;;5.15;3.10;;;;;;;28.08;48.48;101354.03;5062365;28;20033;-90
2022/09/06 10:25:35;;;;;;;6.35;2.95;;;;;;;28.02;48.98;101355.31;5043765;28;20043;-90
2022/09/06 10:28:18;;;;;;;5.13;3.13;;;;;;;27.95;48.94;101368.84;5041488;28;20039;-88
2022/09/06 10:31:11;;;;;;;4.25;2.70;;;;;;;27.91;49.71;101367.81;5041387;28;20416;-89
2022/09/06 10:34:02;;;;;;;5.00;2.72;;;;;;;28.35;47.12;101382.84;5042345;28;20036;-88
2022/09/06 10:36:34;;;;;;;4.75;2.92;;;;;;;27.76;48.20;101369.84;5041835;28;20483;-91
2022/09/06 10:39:08;;;;;;;5.80;2.63;;;;;;;27.89;47.33;101359.78;5025499;28;20497;-90
2022/09/06 10:42:04;;;;;;;4.05;3.03;;;;;;;28.17;47.88;101368.00;5042485;28;22075;-90
2022/09/06 10:44:49;;;;;;;6.45;2.95;;;;;;;28.08;47.46;101351.25;5040633;28;20076;-89
2022/09/06 10:47:15;;;;;;;5.78;2.97;;;;;;;28.09;48.01;101355.66;5041613;28;20041;-89
2022/09/06 10:49:49;;;;;;;3.78;3.10;;;;;;;27.94;48.85;101350.47;5041331;28;20033;-90
2022/09/06 10:52:28;;;;;;;4.72;3.08;;;;;;;27.62;49.45;101338.44;5042013;28;20131;-87
2022/09/06 10:55:02;;;;;;;6.63;3.10;;;;;;;27.85;49.29;101344.03;5041020;28;20504;-89
2022/09/06 10:57:45;;;;;;;5.93;3.53;;;;;;;27.89;48.93;101348.66;5041559;28;20575;-88
2022/09/06 11:00:13;;;;;;;5.72;3.70;;;;;;;27.81;49.48;101352.19;5043300;28;20064;-87
2022/09/06 11:02:54;;;;;;;5.88;3.50;;;;;;;28.03;49.65;101351.38;5044346;28;20102;-88
2022/09/06 11:05:27;;;;;;;3.97;3.30;;;;;;;27.92;49.08;101347.16;5045373;28;20087;-89
2022/09/06 11:08:07;;;;;;;5.40;3.35;;;;;;;27.76;48.63;101355.94;5044204;28;20041;-88
2022/09/06 11:10:36;;;;;;;5.65;3.72;;;;;;;27.80;48.97;101350.56;5045089;28;20032;-91
2022/09/06 11:13:09;;;;;;;5.65;3.85;;;;;;;27.71;50.39;101347.69;5044290;28;20044;-86
2022/09/06 11:15:49;;;;;;;5.50;3.92;;;;;;;27.66;50.61;101342.25;5044155;28;20039;-86
2022/09/06 11:18:39;;;;;;;7.10;3.95;;;;;;;27.89;50.74;101356.16;5044921;28;20479;-89
2022/09/06 11:21:23;;;;;;;5.55;3.45;;;;;;;28.01;50.20;101361.19;5044199;28;20128;-86
2022/09/06 11:24:13;;;;;;;6.90;3.60;;;;;;;28.15;49.52;101361.91;5044322;28;20040;-88
2022/09/06 11:27:05;;;;;;;6.38;4.22;;;;;;;27.93;49.70;101371.09;5022961;28;20224;-90
2022/09/06 11:29:32;;;;;;;7.13;3.95;;;;;;;27.69;49.04;101372.25;5063842;28;20492;-88